createdAt,value
2019-05-01T00:00:27.028Z,33.33
2019-05-01T00:03:14.983Z,35.13
2019-05-01T00:05:46.325Z,34.23
2019-05-01T00:08:15.427Z,35.57
2019-05-01T00:10:44.459Z,32.17
2019-05-01T00:13:13.482Z,33.70
2019-05-01T00:15:42.939Z,36.70
2019-05-01T00:18:11.967Z,36.77
2019-05-01T00:20:40.970Z,36.30
2019-05-01T00:23:09.895Z,38.37
2019-05-01T00:25:39.217Z,37.03
2019-05-01T00:28:08.394Z,35.60
2019-05-01T00:30:37.454Z,33.63
2019-05-01T00:33:06.804Z,37.10
2019-05-01T00:35:35.705Z,37.73
2019-05-01T00:38:04.621Z,39.87
2019-05-01T00:40:33.493Z,36.47
2019-05-01T00:43:02.485Z,39.17
2019-05-01T00:45:31.469Z,37.93
2019-05-01T00:48:00.783Z,37.27
2019-05-01T00:50:29.599Z,37.33
2019-05-01T00:52:58.505Z,37.40
2019-05-01T00:55:53.782Z,36.43
2019-05-01T00:58:40.119Z,38.00
2019-05-01T01:01:28.015Z,39.20
2019-05-01T01:03:57.140Z,37.77
2019-05-01T01:06:26.402Z,42.43
2019-05-01T01:08:55.395Z,40.30
2019-05-01T01:11:24.430Z,40.70
2019-05-01T01:13:53.481Z,38.93
2019-05-01T01:16:22.689Z,42.53
2019-05-01T01:18:51.676Z,43.13
2019-05-01T01:21:20.655Z,43.50
2019-05-01T01:23:50.162Z,43.23
2019-05-01T01:26:19.175Z,40.90
2019-05-01T01:28:48.573Z,41.27
2019-05-01T01:31:17.606Z,43.70
2019-05-01T01:33:46.553Z,40.60
2019-05-01T01:36:15.574Z,45.40
2019-05-01T01:38:44.548Z,44.30
2019-05-01T01:41:13.613Z,43.60
2019-05-01T01:43:59.018Z,43.87
2019-05-01T01:46:29.686Z,42.63
2019-05-01T01:48:58.971Z,45.87
2019-05-01T01:51:28.284Z,44.50
2019-05-01T01:53:58.590Z,46.87
2019-05-01T01:56:27.955Z,42.03
2019-05-01T01:58:57.826Z,46.77
2019-05-01T02:01:35.722Z,45.53
2019-05-01T02:04:10.734Z,47.73
2019-05-01T02:06:39.868Z,45.60
2019-05-01T02:09:09.791Z,45.00
2019-05-01T02:11:38.721Z,44.97
2019-05-01T02:14:07.679Z,46.47
2019-05-01T02:16:36.908Z,42.63
2019-05-01T02:19:06.022Z,42.73
2019-05-01T02:21:35.020Z,48.00
2019-05-01T02:24:04.091Z,45.47
2019-05-01T02:26:37.518Z,46.00
2019-05-01T02:29:17.363Z,45.50
2019-05-01T02:31:48.942Z,47.83
2019-05-01T02:34:19.067Z,50.47
2019-05-01T02:36:49.321Z,48.33
2019-05-01T02:39:21.136Z,48.03
2019-05-01T02:41:52.765Z,45.10
2019-05-01T02:44:31.293Z,47.57
2019-05-01T02:47:03.373Z,49.20
2019-05-01T02:49:36.981Z,50.00
2019-05-01T02:52:07.678Z,49.17
2019-05-01T02:54:38.567Z,46.53
2019-05-01T02:57:12.873Z,47.27
2019-05-01T02:59:45.806Z,46.83
2019-05-01T03:02:15.358Z,47.57
2019-05-01T03:04:46.048Z,52.60
2019-05-01T03:07:15.850Z,45.27
2019-05-01T03:09:45.012Z,44.83
2019-05-01T03:12:17.729Z,46.40
2019-05-01T03:14:49.429Z,43.70
2019-05-01T03:17:45.060Z,48.17
2019-05-01T03:20:32.019Z,45.90
2019-05-01T03:23:32.774Z,48.90
2019-05-01T03:26:02.150Z,51.83
2019-05-01T03:31:09.237Z,48.10
2019-05-01T03:33:38.742Z,47.23
2019-05-01T03:36:07.876Z,51.17
2019-05-01T03:38:37.617Z,48.10
2019-05-01T03:41:06.691Z,48.60
2019-05-01T03:43:36.213Z,47.17
2019-05-01T03:46:05.277Z,47.13
2019-05-01T03:48:34.629Z,50.27
2019-05-01T03:51:03.645Z,52.60
2019-05-01T03:53:32.833Z,46.13
2019-05-01T03:56:01.847Z,49.33
2019-05-01T03:58:31.469Z,48.10
2019-05-01T04:01:17.193Z,53.07
2019-05-01T04:03:49.978Z,46.87
2019-05-01T04:06:19.379Z,48.47
2019-05-01T04:08:48.929Z,44.67
2019-05-01T04:11:18.028Z,49.20
2019-05-01T04:13:47.519Z,51.10
2019-05-01T04:16:17.809Z,46.17
2019-05-01T04:18:47.684Z,46.93
2019-05-01T04:21:17.183Z,47.27
2019-05-01T04:23:46.239Z,48.83
2019-05-01T04:26:15.773Z,52.03
2019-05-01T04:28:53.487Z,48.67
2019-05-01T04:31:41.931Z,49.13
2019-05-01T04:34:19.206Z,46.90
2019-05-01T04:36:51.884Z,49.97
2019-05-01T04:39:21.036Z,53.47
2019-05-01T04:41:50.222Z,54.50
2019-05-01T04:44:20.209Z,65.63
2019-05-01T04:46:53.643Z,63.07
2019-05-01T04:49:23.238Z,67.33
2019-05-01T04:51:52.582Z,76.30
2019-05-01T04:54:24.751Z,73.57
2019-05-01T04:56:58.181Z,74.33
2019-05-01T04:59:27.299Z,76.70
2019-05-01T05:01:59.014Z,78.03
2019-05-01T05:04:29.247Z,76.00
2019-05-01T05:06:58.845Z,73.20
2019-05-01T05:09:56.596Z,76.23
2019-05-01T05:12:35.068Z,78.60
2019-05-01T05:15:15.806Z,76.50
2019-05-01T05:17:45.315Z,80.90
2019-05-01T05:20:14.698Z,85.37
2019-05-01T05:22:43.974Z,87.03
2019-05-01T05:25:13.009Z,81.33
2019-05-01T05:27:42.417Z,80.90
2019-05-01T05:30:11.467Z,81.93
2019-05-01T05:32:43.344Z,84.50
2019-05-01T05:35:14.015Z,93.20
2019-05-01T05:38:04.051Z,82.47
2019-05-01T05:40:34.708Z,83.00
2019-05-01T05:43:03.882Z,83.93
2019-05-01T05:45:33.402Z,89.03
2019-05-01T05:48:02.541Z,89.93
2019-05-01T05:50:36.852Z,85.83
2019-05-01T05:53:08.887Z,89.33
2019-05-01T05:55:44.930Z,89.03
2019-05-01T05:58:20.726Z,88.43
2019-05-01T06:01:08.576Z,90.13
2019-05-01T06:04:16.735Z,93.13
2019-05-01T06:07:13.673Z,87.97
2019-05-01T06:10:03.779Z,94.60
2019-05-01T06:12:45.062Z,92.87
2019-05-01T06:15:31.160Z,93.87
2019-05-01T06:18:06.011Z,93.17
2019-05-01T06:20:45.737Z,90.47
2019-05-01T06:23:34.410Z,91.40
2019-05-01T06:26:43.395Z,91.17
2019-05-01T06:29:12.779Z,94.90
2019-05-01T06:31:42.034Z,91.13
2019-05-01T06:34:11.075Z,85.27
2019-05-01T06:36:44.157Z,85.57
2019-05-01T06:39:12.027Z,85.43
2019-05-01T06:41:44.489Z,88.60
2019-05-01T06:44:20.360Z,85.60
2019-05-01T06:47:24.665Z,88.03
2019-05-01T06:50:10.212Z,87.93
2019-05-01T06:52:39.963Z,88.03
2019-05-01T06:55:09.091Z,83.40
2019-05-01T06:57:43.872Z,86.53
2019-05-01T07:00:15.581Z,83.73
2019-05-01T07:02:48.105Z,87.67
2019-05-01T07:05:17.965Z,83.27
2019-05-01T07:07:48.158Z,84.80
2019-05-01T07:10:29.910Z,88.87
2019-05-01T07:12:49.018Z,85.97
2019-05-01T07:15:21.812Z,85.43
2019-05-01T07:17:49.290Z,87.00
2019-05-01T07:20:25.602Z,90.60
2019-05-01T07:22:55.714Z,89.60
2019-05-01T07:25:24.760Z,91.17
2019-05-01T07:27:58.077Z,89.00
2019-05-01T07:30:50.019Z,94.93
2019-05-01T07:33:17.937Z,85.07
2019-05-01T07:35:47.977Z,84.73
2019-05-01T07:38:17.106Z,95.03
2019-05-01T07:40:46.384Z,86.23
2019-05-01T07:43:24.102Z,86.23
2019-05-01T07:46:26.709Z,80.57
2019-05-01T07:48:55.955Z,86.83
2019-05-01T07:51:25.216Z,77.63
2019-05-01T07:53:54.427Z,89.50
2019-05-01T07:56:28.131Z,81.53
2019-05-01T07:58:54.673Z,79.00
2019-05-01T08:01:54.407Z,83.93
2019-05-01T08:04:35.875Z,79.43
2019-05-01T08:06:57.013Z,81.53
2019-05-01T08:09:24.161Z,84.60
2019-05-01T08:11:53.367Z,91.23
2019-05-01T08:14:22.590Z,93.50
2019-05-01T08:16:51.712Z,86.97
2019-05-01T08:19:39.459Z,92.80
2019-05-01T08:22:11.055Z,85.77
2019-05-01T08:24:40.148Z,87.63
2019-05-01T08:27:19.866Z,81.57
2019-05-01T08:30:05.417Z,85.47
2019-05-01T08:32:40.945Z,83.93
2019-05-01T08:35:12.087Z,83.57
2019-05-01T08:37:41.105Z,78.47
2019-05-01T08:40:10.108Z,73.87
2019-05-01T08:42:42.798Z,76.57
2019-05-01T08:45:35.741Z,72.53
2019-05-01T08:48:21.863Z,84.97
2019-05-01T08:50:54.522Z,79.83
2019-05-01T08:53:23.170Z,82.70
2019-05-01T08:55:52.694Z,83.83
2019-05-01T08:58:21.623Z,86.33
2019-05-01T09:00:50.522Z,79.23
2019-05-01T09:03:20.455Z,85.10
2019-05-01T09:05:52.147Z,87.80
2019-05-01T09:08:20.435Z,80.77
2019-05-01T09:10:49.931Z,81.80
2019-05-01T09:13:23.698Z,90.17
2019-05-01T09:15:50.931Z,85.23
2019-05-01T09:18:19.913Z,84.33
2019-05-01T09:20:50.765Z,80.17
2019-05-01T09:23:20.329Z,82.23
2019-05-01T09:26:14.601Z,86.17
2019-05-01T09:29:04.685Z,86.33
2019-05-01T09:31:35.601Z,90.87
2019-05-01T09:34:05.728Z,88.73
2019-05-01T09:36:34.716Z,84.00
2019-05-01T09:39:05.717Z,93.03
2019-05-01T09:41:38.371Z,84.60
2019-05-01T09:44:10.038Z,85.63
2019-05-01T09:46:37.025Z,101.17
2019-05-01T09:49:06.451Z,104.83
2019-05-01T09:51:54.580Z,98.07
2019-05-01T09:54:51.698Z,97.67
2019-05-01T09:57:20.799Z,93.13
2019-05-01T09:59:49.738Z,94.37
2019-05-01T10:02:18.734Z,93.03
2019-05-01T10:04:47.601Z,93.13
2019-05-01T10:07:16.616Z,95.47
2019-05-01T10:09:47.407Z,88.87
2019-05-01T10:12:16.030Z,90.63
2019-05-01T10:14:45.071Z,95.93
2019-05-01T10:17:14.073Z,103.77
2019-05-01T10:19:42.936Z,105.40
2019-05-01T10:22:11.954Z,104.70
2019-05-01T10:24:40.971Z,100.47
2019-05-01T10:27:12.331Z,105.23
2019-05-01T10:30:02.818Z,105.83
2019-05-01T10:32:39.492Z,105.40
2019-05-01T10:35:22.744Z,101.97
2019-05-01T10:37:51.561Z,97.20
2019-05-01T10:40:22.323Z,94.60
2019-05-01T10:42:51.185Z,99.30
2019-05-01T10:45:20.535Z,108.90
2019-05-01T10:47:49.484Z,100.07
2019-05-01T10:50:18.313Z,105.53
2019-05-01T10:52:47.448Z,109.73
2019-05-01T10:55:16.722Z,113.70
2019-05-01T10:57:45.677Z,115.43
2019-05-01T11:00:15.800Z,110.83
2019-05-01T11:02:44.727Z,100.57
2019-05-01T11:05:13.800Z,105.40
2019-05-01T11:07:43.012Z,105.73
2019-05-01T11:10:12.345Z,99.67
2019-05-01T11:12:41.627Z,110.73
2019-05-01T11:15:11.059Z,97.17
2019-05-01T11:17:39.985Z,107.07
2019-05-01T11:20:09.162Z,92.50
2019-05-01T11:22:38.405Z,98.87
2019-05-01T11:25:07.765Z,95.57
2019-05-01T11:27:36.957Z,100.27
2019-05-01T11:30:06.972Z,102.10
2019-05-01T11:32:53.903Z,96.23
2019-05-01T11:35:48.306Z,108.23
2019-05-01T11:38:38.939Z,98.30
2019-05-01T11:41:12.521Z,98.43
2019-05-01T11:43:41.435Z,98.43
2019-05-01T11:46:10.511Z,90.07
2019-05-01T11:48:39.443Z,92.53
2019-05-01T11:51:08.368Z,96.23
2019-05-01T11:53:37.299Z,94.43
2019-05-01T11:56:06.792Z,91.87
2019-05-01T11:58:36.243Z,94.10
2019-05-01T12:01:06.292Z,93.23
2019-05-01T12:03:35.254Z,94.30
2019-05-01T12:06:04.308Z,95.00
2019-05-01T12:08:33.817Z,96.30
2019-05-01T12:11:03.904Z,85.87
2019-05-01T12:13:43.175Z,92.20
2019-05-01T12:16:22.605Z,85.00
2019-05-01T12:18:51.913Z,92.70
2019-05-01T12:21:20.966Z,91.63
2019-05-01T12:23:50.081Z,92.17
2019-05-01T12:26:19.105Z,99.20
2019-05-01T12:28:48.000Z,92.97
2019-05-01T12:31:16.963Z,100.37
2019-05-01T12:33:45.984Z,102.63
2019-05-01T12:36:14.916Z,103.07
2019-05-01T12:38:46.030Z,104.23
2019-05-01T12:41:38.483Z,103.50
2019-05-01T12:44:07.549Z,105.97
2019-05-01T12:46:43.096Z,97.50
2019-05-01T12:49:12.273Z,98.60
2019-05-01T12:51:43.118Z,94.90
2019-05-01T12:54:18.704Z,95.33
2019-05-01T12:56:52.122Z,104.10
2019-05-01T12:59:21.065Z,97.43
2019-05-01T13:01:50.373Z,102.93
2019-05-01T13:04:19.315Z,95.07
2019-05-01T13:06:50.352Z,103.90
2019-05-01T13:09:19.214Z,97.93
2019-05-01T13:11:48.498Z,103.03
2019-05-01T13:14:17.359Z,97.00
2019-05-01T13:16:46.252Z,97.93
2019-05-01T13:19:15.370Z,99.73
2019-05-01T13:21:44.354Z,101.23
2019-05-01T13:24:13.258Z,100.07
2019-05-01T13:26:47.521Z,98.53
2019-05-01T13:29:40.395Z,86.77
2019-05-01T13:32:37.303Z,93.00
2019-05-01T13:35:06.554Z,97.97
2019-05-01T13:37:35.550Z,91.10
2019-05-01T13:40:05.866Z,90.63
2019-05-01T13:42:34.889Z,88.87
2019-05-01T13:45:04.849Z,89.27
2019-05-01T13:47:33.863Z,82.07
2019-05-01T13:50:03.177Z,81.00
2019-05-01T13:52:32.186Z,87.37
2019-05-01T13:55:01.318Z,81.97
2019-05-01T13:57:30.205Z,85.10
2019-05-01T13:59:59.171Z,83.80
2019-05-01T14:02:28.663Z,86.37
2019-05-01T14:04:57.944Z,91.30
2019-05-01T14:07:26.962Z,90.57
2019-05-01T14:09:55.833Z,82.27
2019-05-01T14:12:24.763Z,82.07
2019-05-01T14:14:53.682Z,75.50
2019-05-01T14:17:22.760Z,76.17
2019-05-01T14:20:29.367Z,76.63
2019-05-01T14:23:03.026Z,70.07
2019-05-01T14:25:51.281Z,68.03
2019-05-01T14:28:20.228Z,73.90
2019-05-01T14:30:49.113Z,71.17
2019-05-01T14:33:18.057Z,69.10
2019-05-01T14:35:47.160Z,70.90
2019-05-01T14:38:16.211Z,65.60
2019-05-01T14:40:45.288Z,65.67
2019-05-01T14:43:14.528Z,74.10
2019-05-01T14:45:43.509Z,65.50
2019-05-01T14:48:12.478Z,64.17
2019-05-01T14:50:41.590Z,60.17
2019-05-01T14:53:10.844Z,63.57
2019-05-01T14:55:39.892Z,57.53
2019-05-01T14:58:09.273Z,55.60
2019-05-01T15:00:38.379Z,59.87
2019-05-01T15:03:07.784Z,60.20
2019-05-01T15:05:36.633Z,56.83
2019-05-01T15:08:06.214Z,57.80
2019-05-01T15:10:35.284Z,55.63
2019-05-01T15:13:08.894Z,57.93
2019-05-01T15:16:02.635Z,56.17
2019-05-01T15:18:39.905Z,59.07
2019-05-01T15:21:09.471Z,58.10
2019-05-01T15:23:38.450Z,57.70
2019-05-01T15:26:07.601Z,57.37
2019-05-01T15:28:36.594Z,53.77
2019-05-01T15:31:05.721Z,51.53
2019-05-01T15:33:34.951Z,53.27
2019-05-01T15:36:03.978Z,56.13
2019-05-01T15:38:33.001Z,54.10
2019-05-01T15:41:11.204Z,52.30
2019-05-01T15:43:49.492Z,49.63
2019-05-01T15:46:18.545Z,51.17
2019-05-01T15:48:47.613Z,53.97
2019-05-01T15:51:16.524Z,52.60
2019-05-01T15:53:45.382Z,53.23
2019-05-01T15:56:14.391Z,50.63
2019-05-01T15:58:43.412Z,47.17
2019-05-01T16:01:12.886Z,49.80
2019-05-01T16:03:41.931Z,49.07
2019-05-01T16:06:10.914Z,48.27
2019-05-01T16:08:40.201Z,48.10
2019-05-01T16:11:20.648Z,46.60
2019-05-01T16:13:49.657Z,44.87
2019-05-01T16:16:18.517Z,45.83
2019-05-01T16:18:47.507Z,48.17
2019-05-01T16:21:16.541Z,45.27
2019-05-01T16:23:45.999Z,46.33
2019-05-01T16:26:14.924Z,50.90
2019-05-01T16:28:43.819Z,50.53
2019-05-01T16:31:12.895Z,45.47
2019-05-01T16:33:41.830Z,46.30
2019-05-01T16:36:10.843Z,46.57
2019-05-01T16:38:53.984Z,46.63
2019-05-01T16:41:23.074Z,46.83
2019-05-01T16:43:52.384Z,50.77
2019-05-01T16:46:21.290Z,46.50
2019-05-01T16:48:52.072Z,44.60
2019-05-01T16:51:21.191Z,47.23
2019-05-01T16:53:50.196Z,45.10
2019-05-01T16:56:19.500Z,43.47
2019-05-01T16:58:48.541Z,45.57
2019-05-01T17:01:39.714Z,48.47
2019-05-01T17:04:16.913Z,46.90
2019-05-01T17:06:57.111Z,47.50
2019-05-01T17:10:03.659Z,44.57
2019-05-01T17:12:38.797Z,44.83
2019-05-01T17:15:08.218Z,47.57
2019-05-01T17:17:37.709Z,46.63
2019-05-01T17:20:07.201Z,50.80
2019-05-01T17:22:36.292Z,46.87
2019-05-01T17:25:05.752Z,48.53
2019-05-01T17:27:34.770Z,46.93
2019-05-01T17:30:06.191Z,46.50
2019-05-01T17:32:35.274Z,52.73
2019-05-01T17:35:06.667Z,49.67
2019-05-01T17:37:35.746Z,46.10
2019-05-01T17:40:06.777Z,46.27
2019-05-01T17:42:37.688Z,47.97
2019-05-01T17:45:06.784Z,48.40
2019-05-01T17:47:41.561Z,48.93
2019-05-01T17:50:11.138Z,51.30
2019-05-01T17:52:40.156Z,48.83
2019-05-01T17:55:09.432Z,52.40
2019-05-01T17:57:38.748Z,49.83
2019-05-01T18:00:26.995Z,47.97
2019-05-01T18:03:02.945Z,51.77
2019-05-01T18:05:45.750Z,50.47
2019-05-01T18:08:15.390Z,52.33
2019-05-01T18:10:44.444Z,49.80
2019-05-01T18:13:13.373Z,53.30
2019-05-01T18:15:42.491Z,55.73
2019-05-01T18:18:15.166Z,48.60
2019-05-01T18:20:42.711Z,48.43
2019-05-01T18:23:29.691Z,51.63
2019-05-01T18:26:08.858Z,54.53
2019-05-01T18:28:43.141Z,52.43
2019-05-01T18:31:17.025Z,48.77
2019-05-01T18:33:46.357Z,52.23
2019-05-01T18:36:19.851Z,53.13
2019-05-01T18:38:53.797Z,52.10
2019-05-01T18:41:41.843Z,52.53
2019-05-01T18:44:11.426Z,57.50
2019-05-01T18:46:40.995Z,56.73
2019-05-01T18:49:09.989Z,83.27
2019-05-01T18:51:40.826Z,58.90
2019-05-01T18:54:10.149Z,56.17
2019-05-01T18:56:39.585Z,52.27
2019-05-01T18:59:08.649Z,59.27
2019-05-01T19:01:38.167Z,66.93
2019-05-01T19:04:07.318Z,61.57
2019-05-01T19:06:41.753Z,61.53
2019-05-01T19:09:15.193Z,55.00
2019-05-01T19:11:39.926Z,57.37
2019-05-01T19:14:10.031Z,56.77
2019-05-01T19:16:40.107Z,58.80
2019-05-01T19:19:10.427Z,56.60
2019-05-01T19:21:41.815Z,52.57
2019-05-01T19:24:10.790Z,54.30
2019-05-01T19:26:42.599Z,58.93
2019-05-01T19:29:10.651Z,60.23
2019-05-01T19:31:39.826Z,55.53
2019-05-01T19:34:09.156Z,58.90
2019-05-01T19:36:40.294Z,61.53
2019-05-01T19:39:11.646Z,56.60
2019-05-01T19:41:43.651Z,51.43
2019-05-01T19:44:13.979Z,57.37
2019-05-01T19:46:41.170Z,60.53
2019-05-01T19:49:09.999Z,66.13
2019-05-01T19:51:39.449Z,57.17
2019-05-01T19:54:08.668Z,61.87
2019-05-01T19:56:37.978Z,57.93
2019-05-01T19:59:07.014Z,57.53
2019-05-01T20:01:38.436Z,73.43
2019-05-01T20:04:08.564Z,60.47
2019-05-01T20:06:39.954Z,55.07
2019-05-01T20:09:09.998Z,55.17
2019-05-01T20:11:39.999Z,59.17
2019-05-01T20:14:09.014Z,56.73
2019-05-01T20:16:40.764Z,61.07
2019-05-01T20:19:09.681Z,62.63
2019-05-01T20:21:41.672Z,62.63
2019-05-01T20:24:10.627Z,60.53
2019-05-01T20:26:39.908Z,62.63
2019-05-01T20:29:09.187Z,59.13
2019-05-01T20:31:38.599Z,62.13
2019-05-01T20:34:12.069Z,60.07
2019-05-01T20:36:39.505Z,61.07
2019-05-01T20:39:08.889Z,57.90
2019-05-01T20:41:38.095Z,59.07
2019-05-01T20:44:07.174Z,59.47
2019-05-01T20:46:36.632Z,58.77
2019-05-01T20:49:06.635Z,59.40
2019-05-01T20:51:35.739Z,58.10
2019-05-01T20:54:05.472Z,60.37
2019-05-01T20:57:02.439Z,62.20
2019-05-01T20:59:35.199Z,62.17
2019-05-01T21:02:07.682Z,61.27
2019-05-01T21:04:52.248Z,56.43
2019-05-01T21:07:30.518Z,65.33
2019-05-01T21:10:00.538Z,67.07
2019-05-01T21:12:30.108Z,62.90
2019-05-01T21:14:58.974Z,66.37
2019-05-01T21:17:28.353Z,63.23
2019-05-01T21:19:57.252Z,61.00
2019-05-01T21:22:27.167Z,66.13
2019-05-01T21:24:59.616Z,56.27
2019-05-01T21:27:29.033Z,62.70
2019-05-01T21:35:15.740Z,65.93
2019-05-01T21:37:45.397Z,65.57
2019-05-01T21:40:14.695Z,61.30
2019-05-01T21:42:47.287Z,65.47
2019-05-01T21:45:15.359Z,68.20
2019-05-01T21:47:44.292Z,66.07
2019-05-01T21:50:13.361Z,68.40
2019-05-01T21:52:43.893Z,69.73
2019-05-01T21:55:13.199Z,68.93
2019-05-01T21:57:42.290Z,65.77
2019-05-01T22:00:15.525Z,71.90
2019-05-01T22:02:46.398Z,66.40
2019-05-01T22:05:15.820Z,64.47
2019-05-01T22:07:44.677Z,66.57
2019-05-01T22:10:14.548Z,66.93
2019-05-01T22:12:48.515Z,70.60
2019-05-01T22:15:22.735Z,71.07
2019-05-01T22:18:10.933Z,66.57
2019-05-01T22:20:44.495Z,71.40
2019-05-01T22:23:17.251Z,65.90
2019-05-01T22:25:49.952Z,70.50
2019-05-01T22:28:32.796Z,72.90
2019-05-01T22:31:21.808Z,73.87
2019-05-01T22:33:50.716Z,78.60
2019-05-01T22:36:19.694Z,71.63
2019-05-01T22:38:48.783Z,71.97
2019-05-01T22:41:17.741Z,70.87
2019-05-01T22:43:48.220Z,80.40
2019-05-01T22:46:25.635Z,78.27
2019-05-01T22:48:54.893Z,79.53
2019-05-01T22:51:24.037Z,73.50
2019-05-01T22:53:56.022Z,75.30
2019-05-01T22:56:25.509Z,75.93
2019-05-01T22:58:54.614Z,74.97
2019-05-01T23:01:24.839Z,85.87
2019-05-01T23:04:03.247Z,82.50
2019-05-01T23:06:32.616Z,76.37
2019-05-01T23:09:02.164Z,77.07
2019-05-01T23:11:33.562Z,81.87
2019-05-01T23:14:02.654Z,77.57
2019-05-01T23:16:36.778Z,79.43
2019-05-01T23:19:05.822Z,83.43
2019-05-01T23:21:36.906Z,84.27
2019-05-01T23:24:08.187Z,81.07
2019-05-01T23:26:38.171Z,83.53
2019-05-01T23:29:07.303Z,92.13
2019-05-01T23:31:36.221Z,79.00
2019-05-01T23:34:05.496Z,85.97
2019-05-01T23:36:34.446Z,77.83
2019-05-01T23:39:05.328Z,83.70
2019-05-01T23:41:45.375Z,84.47
2019-05-01T23:44:05.513Z,82.13
2019-05-01T23:46:35.113Z,82.20
2019-05-01T23:49:04.242Z,83.87
2019-05-01T23:51:33.964Z,89.00
2019-05-01T23:54:03.017Z,83.43
2019-05-01T23:56:35.003Z,81.80
2019-05-01T23:59:03.468Z,85.20
